createdAt,value
2022-07-31T00:00:30.730Z,101638.09
2022-07-31T00:02:59.575Z,101639.88
2022-07-31T00:05:28.338Z,101641.50
2022-07-31T00:07:58.367Z,101663.09
2022-07-31T00:10:26.894Z,101626.31
2022-07-31T00:12:55.321Z,101623.69
2022-07-31T00:15:23.667Z,101626.38
2022-07-31T00:17:52.695Z,101599.09
2022-07-31T00:20:21.321Z,101623.47
2022-07-31T00:22:50.543Z,101633.81
2022-07-31T00:25:20.490Z,101634.81
2022-07-31T00:27:48.984Z,101625.25
2022-07-31T00:30:17.969Z,101605.78
2022-07-31T00:32:46.823Z,101626.78
2022-07-31T00:35:17.642Z,101633.06
2022-07-31T00:37:46.077Z,101580.78
2022-07-31T00:40:17.299Z,101623.41
2022-07-31T00:42:47.205Z,101626.00
2022-07-31T00:45:15.669Z,101631.41
2022-07-31T00:47:44.901Z,101603.97
2022-07-31T00:50:14.063Z,101545.97
2022-07-31T00:52:43.590Z,101557.03
2022-07-31T00:55:13.902Z,101571.72
2022-07-31T00:57:43.627Z,101596.06
2022-07-31T01:00:18.665Z,101605.13
2022-07-31T01:02:47.587Z,101606.13
2022-07-31T01:05:18.814Z,101594.59
2022-07-31T01:07:51.460Z,101601.75
2022-07-31T01:10:39.930Z,101592.91
2022-07-31T01:13:16.244Z,101608.09
2022-07-31T01:15:46.959Z,101596.69
2022-07-31T01:18:17.116Z,101595.53
2022-07-31T01:20:48.266Z,101585.06
2022-07-31T01:23:55.031Z,101622.66
2022-07-31T01:26:59.057Z,101601.75
2022-07-31T01:29:33.119Z,101599.13
2022-07-31T01:32:07.678Z,101594.44
2022-07-31T01:34:43.663Z,101586.50
2022-07-31T01:37:20.783Z,101590.66
2022-07-31T01:39:57.537Z,101587.66
2022-07-31T01:42:27.147Z,101494.56
2022-07-31T01:45:01.609Z,101580.91
2022-07-31T01:47:33.035Z,101588.84
2022-07-31T01:50:04.823Z,101573.59
2022-07-31T01:52:34.863Z,101578.22
2022-07-31T01:55:06.677Z,101583.47
2022-07-31T01:57:36.305Z,101571.84
2022-07-31T02:00:33.174Z,101564.91
2022-07-31T02:03:01.413Z,101558.31
2022-07-31T02:05:42.391Z,101558.16
2022-07-31T02:08:12.738Z,101567.00
2022-07-31T02:10:46.265Z,101564.38
2022-07-31T02:13:17.825Z,101551.03
2022-07-31T02:15:49.001Z,101545.81
2022-07-31T02:18:21.656Z,101552.91
2022-07-31T02:21:08.663Z,101361.88
2022-07-31T02:23:38.649Z,101554.03
2022-07-31T02:26:09.082Z,101533.81
2022-07-31T02:28:42.441Z,101540.97
2022-07-31T02:31:14.612Z,101555.06
2022-07-31T02:33:48.123Z,101446.25
2022-07-31T02:36:20.197Z,101555.72
2022-07-31T02:38:50.599Z,101519.66
2022-07-31T02:41:20.547Z,101530.25
2022-07-31T02:43:52.644Z,101527.63
2022-07-31T02:46:24.492Z,101555.81
2022-07-31T02:48:53.851Z,101553.09
2022-07-31T02:51:24.840Z,101538.97
2022-07-31T02:53:54.758Z,101525.19
2022-07-31T02:56:26.541Z,101554.38
2022-07-31T02:58:55.743Z,101528.53
2022-07-31T03:01:30.945Z,101528.69
2022-07-31T03:03:59.307Z,101535.16
2022-07-31T03:06:29.780Z,101475.31
2022-07-31T03:08:59.317Z,101439.91
2022-07-31T03:11:30.049Z,101536.06
2022-07-31T03:14:01.912Z,101509.81
2022-07-31T03:16:34.047Z,101542.19
2022-07-31T03:19:05.369Z,101536.53
2022-07-31T03:21:33.952Z,101534.81
2022-07-31T03:24:05.982Z,101537.69
2022-07-31T03:26:35.268Z,101521.81
2022-07-31T03:29:03.800Z,101533.38
2022-07-31T03:31:33.633Z,101533.38
2022-07-31T03:34:02.653Z,101534.28
2022-07-31T03:36:32.093Z,101509.72
2022-07-31T03:39:00.507Z,101555.06
2022-07-31T03:41:36.631Z,101523.69
2022-07-31T03:44:07.931Z,101533.56
2022-07-31T03:46:37.684Z,101528.41
2022-07-31T03:49:06.795Z,101500.88
2022-07-31T03:51:36.032Z,101497.56
2022-07-31T03:54:04.993Z,101515.31
2022-07-31T03:56:50.936Z,101523.97
2022-07-31T03:59:21.707Z,101515.13
2022-07-31T04:01:58.212Z,101518.63
2022-07-31T04:04:45.273Z,101516.16
2022-07-31T04:07:13.750Z,101510.75
2022-07-31T04:09:42.888Z,101512.50
2022-07-31T04:12:12.902Z,101484.41
2022-07-31T04:14:41.696Z,101497.50
2022-07-31T04:17:11.497Z,101201.34
2022-07-31T04:19:39.939Z,101492.38
2022-07-31T04:22:09.055Z,101482.84
2022-07-31T04:24:38.675Z,101486.16
2022-07-31T04:27:25.483Z,101497.34
2022-07-31T04:29:55.568Z,101490.56
2022-07-31T04:32:25.612Z,101485.22
2022-07-31T04:35:03.967Z,101490.41
2022-07-31T04:37:33.498Z,101393.06
2022-07-31T04:40:01.861Z,101504.28
2022-07-31T04:42:32.732Z,101498.13
2022-07-31T04:45:01.724Z,101489.03
2022-07-31T04:47:31.390Z,101494.56
2022-07-31T04:50:00.138Z,101477.00
2022-07-31T04:52:28.597Z,101494.59
2022-07-31T04:55:03.141Z,101484.69
2022-07-31T04:57:31.523Z,101493.72
2022-07-31T05:00:01.299Z,101482.97
2022-07-31T05:02:35.891Z,101314.19
2022-07-31T05:05:05.111Z,101480.25
2022-07-31T05:07:39.861Z,101479.44
2022-07-31T05:10:29.984Z,101496.44
2022-07-31T05:12:58.347Z,101459.34
2022-07-31T05:15:26.870Z,101482.81
2022-07-31T05:17:57.522Z,101481.09
2022-07-31T05:20:54.850Z,101488.09
2022-07-31T05:23:38.259Z,101488.09
2022-07-31T05:26:17.992Z,101488.22
2022-07-31T05:28:46.876Z,101493.19
2022-07-31T05:31:15.539Z,101476.56
2022-07-31T05:33:45.653Z,101487.06
2022-07-31T05:36:14.063Z,101478.41
2022-07-31T05:38:43.443Z,101487.03
2022-07-31T05:41:26.909Z,101476.16
2022-07-31T05:44:01.496Z,101441.06
2022-07-31T05:46:39.676Z,101476.34
2022-07-31T05:49:10.510Z,101474.78
2022-07-31T05:51:39.052Z,101477.47
2022-07-31T05:54:07.467Z,101447.81
2022-07-31T05:56:54.648Z,101456.34
2022-07-31T05:59:32.339Z,101468.56
2022-07-31T06:02:01.208Z,101477.03
2022-07-31T06:04:32.217Z,101481.41
2022-07-31T06:07:01.123Z,101466.22
2022-07-31T06:09:31.415Z,101484.00
2022-07-31T06:12:00.119Z,101475.91
2022-07-31T06:14:28.779Z,101476.91
2022-07-31T06:17:17.519Z,101465.72
2022-07-31T06:19:47.373Z,101469.88
2022-07-31T06:22:17.577Z,101483.84
2022-07-31T06:24:46.154Z,101483.66
2022-07-31T06:27:33.159Z,101477.56
2022-07-31T06:30:03.083Z,101486.59
2022-07-31T06:32:31.837Z,101478.72
2022-07-31T06:35:02.543Z,101482.03
2022-07-31T06:37:33.853Z,101482.16
2022-07-31T06:40:02.860Z,101484.25
2022-07-31T06:42:49.775Z,101486.69
2022-07-31T06:45:51.699Z,101484.38
2022-07-31T06:48:40.741Z,101487.69
2022-07-31T06:51:30.267Z,101487.53
2022-07-31T06:53:59.483Z,101485.91
2022-07-31T06:56:28.567Z,101460.47
2022-07-31T06:58:57.453Z,101493.19
2022-07-31T07:01:25.818Z,101485.91
2022-07-31T07:03:54.523Z,101485.19
2022-07-31T07:06:25.319Z,101475.53
2022-07-31T07:08:54.239Z,101437.91
2022-07-31T07:11:23.689Z,101485.06
2022-07-31T07:13:52.079Z,101484.84
2022-07-31T07:16:21.275Z,101474.94
2022-07-31T07:18:50.003Z,101482.03
2022-07-31T07:21:18.543Z,101477.72
2022-07-31T07:23:48.540Z,101474.84
2022-07-31T07:26:29.444Z,101475.41
2022-07-31T07:28:57.893Z,101471.00
2022-07-31T07:31:26.298Z,101479.25
2022-07-31T07:33:55.777Z,101466.66
2022-07-31T07:36:25.357Z,101472.84
2022-07-31T07:39:05.792Z,101481.03
2022-07-31T07:41:35.606Z,101476.09
2022-07-31T07:44:04.125Z,101471.97
2022-07-31T07:46:32.558Z,101491.81
2022-07-31T07:49:05.625Z,101452.34
2022-07-31T07:51:38.551Z,101446.41
2022-07-31T07:54:33.945Z,101475.13
2022-07-31T07:57:22.280Z,101431.94
2022-07-31T08:00:09.657Z,101465.41
2022-07-31T08:03:46.406Z,101470.00
2022-07-31T08:05:48.518Z,101431.47
2022-07-31T08:08:16.928Z,101394.66
2022-07-31T08:10:52.687Z,101437.50
2022-07-31T08:13:28.789Z,101460.00
2022-07-31T08:16:15.745Z,101429.84
2022-07-31T08:18:51.835Z,101458.63
2022-07-31T08:21:20.233Z,101466.84
2022-07-31T08:23:48.939Z,101462.34
2022-07-31T08:26:19.335Z,101464.75
2022-07-31T08:28:51.007Z,101460.72
2022-07-31T08:31:23.720Z,101439.25
2022-07-31T08:34:31.346Z,101450.72
2022-07-31T08:37:59.156Z,101457.47
2022-07-31T08:39:53.145Z,101466.38
2022-07-31T08:42:23.062Z,101465.38
2022-07-31T08:44:51.923Z,101447.56
2022-07-31T08:47:26.198Z,101457.38
2022-07-31T08:49:58.009Z,101461.53
2022-07-31T08:52:28.621Z,101459.09
2022-07-31T08:55:09.400Z,101463.59
2022-07-31T08:57:39.742Z,101463.41
2022-07-31T09:00:12.982Z,101468.47
2022-07-31T09:02:42.316Z,101456.84
2022-07-31T09:05:17.222Z,101383.25
2022-07-31T09:07:45.658Z,101452.28
2022-07-31T09:10:25.422Z,101462.91
2022-07-31T09:12:56.750Z,101451.38
2022-07-31T09:15:30.014Z,101407.09
2022-07-31T09:18:02.212Z,101471.00
2022-07-31T09:20:33.235Z,101466.84
2022-07-31T09:23:10.340Z,101449.84
2022-07-31T09:25:54.024Z,101451.38
2022-07-31T09:28:34.516Z,101459.72
2022-07-31T09:31:04.700Z,101462.53
2022-07-31T09:34:12.055Z,101466.75
2022-07-31T09:36:40.714Z,101458.09
2022-07-31T09:39:31.470Z,101457.06
2022-07-31T09:42:44.294Z,101459.38
2022-07-31T09:45:25.732Z,101452.28
2022-07-31T09:48:08.220Z,101426.69
2022-07-31T09:50:36.882Z,101458.66
2022-07-31T09:53:06.661Z,101450.72
2022-07-31T09:55:36.672Z,101460.91
2022-07-31T09:58:05.339Z,101451.53
2022-07-31T10:00:42.650Z,101461.59
2022-07-31T10:03:14.879Z,101458.66
2022-07-31T10:05:44.868Z,101443.03
2022-07-31T10:08:17.235Z,101478.06
2022-07-31T10:11:16.590Z,101437.94
2022-07-31T10:13:58.126Z,101469.47
2022-07-31T10:16:31.108Z,101441.91
2022-07-31T10:19:33.929Z,101460.84
2022-07-31T10:22:25.155Z,101464.88
2022-07-31T10:24:56.303Z,101434.34
2022-07-31T10:27:24.996Z,101441.19
2022-07-31T10:30:10.474Z,101456.78
2022-07-31T10:32:45.525Z,101473.59
2022-07-31T10:35:29.171Z,101449.13
2022-07-31T10:38:24.137Z,101420.31
2022-07-31T10:41:03.986Z,101457.91
2022-07-31T10:43:47.810Z,101441.81
2022-07-31T10:46:28.716Z,101445.88
2022-07-31T10:49:46.313Z,101452.19
2022-07-31T10:52:57.305Z,101425.31
2022-07-31T10:55:36.680Z,101446.94
2022-07-31T10:58:32.603Z,101442.09
2022-07-31T11:01:12.159Z,101367.44
2022-07-31T11:04:05.175Z,101433.03
2022-07-31T11:07:21.146Z,101450.56
2022-07-31T11:10:16.363Z,101431.00
2022-07-31T11:13:05.628Z,101421.69
2022-07-31T11:16:05.441Z,101432.41
2022-07-31T11:19:01.935Z,101420.06
2022-07-31T11:21:38.897Z,101432.19
2022-07-31T11:24:16.676Z,101440.38
2022-07-31T11:26:50.961Z,101430.50
2022-07-31T11:30:00.870Z,101446.56
2022-07-31T11:32:24.805Z,101448.19
2022-07-31T11:34:57.558Z,101441.25
2022-07-31T11:37:46.299Z,101421.69
2022-07-31T11:40:18.678Z,101436.69
2022-07-31T11:43:10.388Z,101435.41
2022-07-31T11:45:48.297Z,101422.84
2022-07-31T11:48:19.316Z,101433.66
2022-07-31T11:50:49.102Z,101435.34
2022-07-31T11:53:17.882Z,101430.88
2022-07-31T11:55:49.936Z,101419.94
2022-07-31T11:58:20.813Z,101414.69
2022-07-31T12:00:55.106Z,101433.03
2022-07-31T12:03:26.557Z,101431.47
2022-07-31T12:05:55.160Z,101427.00
2022-07-31T12:08:25.283Z,101428.00
2022-07-31T12:10:57.732Z,101434.69
2022-07-31T12:13:27.771Z,101430.13
2022-07-31T12:16:04.239Z,101412.72
2022-07-31T12:18:35.366Z,101435.97
2022-07-31T12:21:05.986Z,101438.31
2022-07-31T12:23:41.933Z,101442.97
2022-07-31T12:26:14.375Z,101430.81
2022-07-31T12:28:43.938Z,101435.81
2022-07-31T12:31:12.460Z,101393.19
2022-07-31T12:33:45.744Z,101414.88
2022-07-31T12:36:16.986Z,101430.09
2022-07-31T12:38:48.201Z,101421.31
2022-07-31T12:41:18.786Z,101430.63
2022-07-31T12:43:51.317Z,101429.63
2022-07-31T12:46:22.769Z,101431.34
2022-07-31T12:48:52.078Z,101441.22
2022-07-31T12:51:44.100Z,101417.22
2022-07-31T12:54:12.175Z,101427.81
2022-07-31T12:56:43.068Z,101404.47
2022-07-31T12:59:12.941Z,101433.50
2022-07-31T13:01:41.493Z,101428.78
2022-07-31T13:04:18.338Z,101149.41
2022-07-31T13:06:51.555Z,101426.75
2022-07-31T13:09:21.097Z,101408.47
2022-07-31T13:11:55.819Z,101428.38
2022-07-31T13:14:26.236Z,101425.78
2022-07-31T13:16:56.047Z,101425.34
2022-07-31T13:19:24.741Z,101380.59
2022-07-31T13:21:56.812Z,101427.44
2022-07-31T13:24:25.619Z,101419.78
2022-07-31T13:26:58.692Z,101423.28
2022-07-31T13:29:27.123Z,101403.66
2022-07-31T13:31:55.639Z,101420.28
2022-07-31T13:34:24.158Z,101417.94
2022-07-31T13:36:52.603Z,101424.69
2022-07-31T13:39:21.025Z,101412.66
2022-07-31T13:41:49.353Z,101413.75
2022-07-31T13:44:19.074Z,101387.38
2022-07-31T13:46:47.386Z,101414.56
2022-07-31T13:49:15.840Z,101416.03
2022-07-31T13:51:44.274Z,101391.31
2022-07-31T13:54:13.345Z,101412.06
2022-07-31T13:56:43.671Z,101409.28
2022-07-31T13:59:16.200Z,101407.56
2022-07-31T14:02:03.363Z,101419.78
2022-07-31T14:04:38.779Z,101413.38
2022-07-31T14:07:09.116Z,101379.81
2022-07-31T14:09:37.995Z,101397.63
2022-07-31T14:12:07.546Z,101402.06
2022-07-31T14:14:37.906Z,101391.19
2022-07-31T14:17:07.671Z,101355.50
2022-07-31T14:19:42.055Z,101412.22
2022-07-31T14:22:14.465Z,101391.63
2022-07-31T14:24:50.056Z,101408.69
2022-07-31T14:27:21.012Z,101403.22
2022-07-31T14:29:49.592Z,101405.75
2022-07-31T14:32:21.849Z,101401.34
2022-07-31T14:34:50.978Z,101401.97
2022-07-31T14:37:20.523Z,101390.13
2022-07-31T14:39:49.068Z,101396.06
2022-07-31T14:42:22.523Z,101377.69
2022-07-31T14:44:54.453Z,101399.72
2022-07-31T14:47:24.274Z,101386.22
2022-07-31T14:50:07.522Z,101369.59
2022-07-31T14:52:39.426Z,101399.00
2022-07-31T14:55:09.472Z,101395.69
2022-07-31T14:57:37.911Z,101403.06
2022-07-31T15:00:12.822Z,101402.88
2022-07-31T15:02:44.538Z,101407.38
2022-07-31T15:06:41.630Z,101406.72
2022-07-31T15:08:03.592Z,101405.31
2022-07-31T15:10:32.890Z,101399.41
2022-07-31T15:13:01.172Z,101400.69
2022-07-31T15:15:29.532Z,101402.34
2022-07-31T15:18:01.748Z,101406.56
2022-07-31T15:20:32.972Z,101396.13
2022-07-31T15:23:01.571Z,101397.47
2022-07-31T15:25:30.092Z,101400.97
2022-07-31T15:27:58.501Z,101394.69
2022-07-31T15:30:26.819Z,101396.41
2022-07-31T15:32:55.169Z,101399.66
2022-07-31T15:35:25.081Z,101398.41
2022-07-31T15:37:53.607Z,101394.75
2022-07-31T15:40:22.004Z,101407.53
2022-07-31T15:42:50.343Z,101382.28
2022-07-31T15:45:20.909Z,101403.31
2022-07-31T15:47:49.713Z,101390.22
2022-07-31T15:50:20.221Z,101376.81
2022-07-31T15:52:50.325Z,101401.41
2022-07-31T15:55:19.276Z,101403.03
2022-07-31T15:57:47.902Z,101402.06
2022-07-31T16:00:17.376Z,101404.53
2022-07-31T16:02:45.878Z,101404.31
2022-07-31T16:05:21.734Z,101372.09
2022-07-31T16:08:29.639Z,101380.22
2022-07-31T16:10:54.824Z,101402.66
2022-07-31T16:13:24.251Z,101392.69
2022-07-31T16:15:53.004Z,101365.53
2022-07-31T16:18:21.853Z,101386.75
2022-07-31T16:20:50.343Z,101404.16
2022-07-31T16:23:20.040Z,101378.94
2022-07-31T16:25:48.464Z,101134.94
2022-07-31T16:28:16.827Z,101308.78
2022-07-31T16:30:45.854Z,101392.22
2022-07-31T16:33:14.413Z,101384.03
2022-07-31T16:35:42.826Z,101389.88
2022-07-31T16:38:11.218Z,101394.13
2022-07-31T16:40:41.123Z,101390.63
2022-07-31T16:43:50.609Z,101384.13
2022-07-31T16:45:59.707Z,101389.88
2022-07-31T16:48:28.048Z,101383.03
2022-07-31T16:50:56.510Z,101390.00
2022-07-31T16:54:13.757Z,101377.19
2022-07-31T16:56:16.657Z,101386.22
2022-07-31T16:58:45.119Z,101384.31
2022-07-31T17:01:58.918Z,101380.97
2022-07-31T17:04:04.383Z,101389.06
2022-07-31T17:06:34.705Z,101378.72
2022-07-31T17:09:17.238Z,101380.31
2022-07-31T17:11:50.435Z,101392.50
2022-07-31T17:14:21.618Z,101349.53
2022-07-31T17:16:51.730Z,101363.88
2022-07-31T17:19:41.107Z,101385.78
2022-07-31T17:22:18.008Z,101385.78
2022-07-31T17:24:50.673Z,101396.00
2022-07-31T17:27:22.797Z,101396.13
2022-07-31T17:29:51.461Z,101395.22
2022-07-31T17:32:19.780Z,101393.34
2022-07-31T17:34:49.542Z,101393.22
2022-07-31T17:37:18.220Z,101400.38
2022-07-31T17:39:47.641Z,101393.59
2022-07-31T17:42:18.054Z,101400.31
2022-07-31T17:44:55.021Z,101385.50
2022-07-31T17:47:25.754Z,101408.19
2022-07-31T17:49:55.416Z,101404.53
2022-07-31T17:52:24.018Z,101404.75
2022-07-31T17:54:53.625Z,101411.81
2022-07-31T17:57:22.933Z,101395.13
2022-07-31T17:59:53.657Z,101408.25
2022-07-31T18:02:22.707Z,101419.47
2022-07-31T18:04:51.041Z,101412.44
2022-07-31T18:07:22.731Z,101411.72
2022-07-31T18:09:51.302Z,101416.03
2022-07-31T18:12:19.688Z,101435.66
2022-07-31T18:14:48.724Z,101418.28
2022-07-31T18:17:19.390Z,101428.25
2022-07-31T18:19:47.648Z,101418.72
2022-07-31T18:22:15.926Z,101359.44
2022-07-31T18:24:44.321Z,101401.97
2022-07-31T18:27:12.604Z,101436.63
2022-07-31T18:29:40.971Z,101435.06
2022-07-31T18:32:09.284Z,101431.56
2022-07-31T18:34:39.017Z,101439.31
2022-07-31T18:37:07.379Z,101428.06
2022-07-31T18:39:47.894Z,101430.75
2022-07-31T18:42:17.729Z,101414.50
2022-07-31T18:44:46.125Z,101447.66
2022-07-31T18:47:14.755Z,101383.84
2022-07-31T18:51:00.416Z,101451.22
2022-07-31T18:52:32.898Z,101447.28
2022-07-31T18:55:01.317Z,101436.69
2022-07-31T18:57:30.473Z,101440.13
2022-07-31T18:59:58.794Z,101455.03
2022-07-31T19:02:28.129Z,101444.22
2022-07-31T19:04:58.541Z,101447.00
2022-07-31T19:07:27.499Z,101450.66
2022-07-31T19:09:55.879Z,101453.50
2022-07-31T19:12:24.558Z,101453.50
2022-07-31T19:14:53.158Z,101458.13
2022-07-31T19:17:21.686Z,101466.75
2022-07-31T19:19:55.034Z,101458.28
2022-07-31T19:22:31.465Z,101462.22
2022-07-31T19:24:59.847Z,101434.84
2022-07-31T19:27:47.135Z,101477.28
2022-07-31T19:30:16.941Z,101411.19
2022-07-31T19:32:45.260Z,101472.41
2022-07-31T19:35:13.596Z,101474.41
2022-07-31T19:37:43.357Z,101475.91
2022-07-31T19:40:12.880Z,101449.81
2022-07-31T19:42:41.277Z,101484.72
2022-07-31T19:45:10.678Z,101486.53
2022-07-31T19:47:39.213Z,101449.22
2022-07-31T19:50:08.752Z,101464.31
2022-07-31T19:52:37.126Z,101493.59
2022-07-31T19:55:09.112Z,101480.91
2022-07-31T19:57:38.229Z,101484.97
2022-07-31T20:00:09.574Z,101497.38
2022-07-31T20:02:38.305Z,101498.31
2022-07-31T20:05:09.040Z,101486.91
2022-07-31T20:07:38.615Z,101504.97
2022-07-31T20:10:10.810Z,101505.31
2022-07-31T20:12:40.819Z,101504.16
2022-07-31T20:15:10.716Z,101503.25
2022-07-31T20:17:39.579Z,101512.38
2022-07-31T20:20:16.065Z,101506.84
2022-07-31T20:22:44.929Z,101511.09
2022-07-31T20:25:20.354Z,101510.03
2022-07-31T20:27:49.919Z,101519.09
2022-07-31T20:30:21.831Z,101521.97
2022-07-31T20:32:51.519Z,101519.72
2022-07-31T20:35:31.217Z,101519.06
2022-07-31T20:38:15.571Z,101525.13
2022-07-31T20:40:48.265Z,101518.84
2022-07-31T20:43:21.984Z,101515.69
2022-07-31T20:45:50.390Z,101529.72
2022-07-31T20:48:18.843Z,101526.47
2022-07-31T20:50:48.213Z,101529.31
2022-07-31T20:53:17.360Z,101493.28
2022-07-31T20:55:49.726Z,101528.25
2022-07-31T20:58:18.928Z,101509.16
2022-07-31T21:00:48.398Z,101417.50
2022-07-31T21:03:17.741Z,101534.41
2022-07-31T21:05:47.064Z,101528.69
2022-07-31T21:08:15.559Z,101527.47
2022-07-31T21:10:44.273Z,101543.63
2022-07-31T21:13:14.359Z,101541.66
2022-07-31T21:15:45.319Z,101514.13
2022-07-31T21:18:15.623Z,101542.00
2022-07-31T21:20:51.740Z,101528.09
2022-07-31T21:23:23.658Z,101543.25
2022-07-31T21:25:52.719Z,101534.75
2022-07-31T21:28:24.101Z,101541.84
2022-07-31T21:30:55.757Z,101500.28
2022-07-31T21:33:26.689Z,101551.22
2022-07-31T21:35:55.540Z,101544.13
2022-07-31T21:38:24.622Z,101545.25
2022-07-31T21:40:56.311Z,101545.81
2022-07-31T21:43:30.483Z,101544.69
2022-07-31T21:46:20.890Z,101548.13
2022-07-31T21:48:51.253Z,101549.16
2022-07-31T21:51:20.330Z,101532.28
2022-07-31T21:53:48.740Z,101494.28
2022-07-31T21:56:17.200Z,101549.53
2022-07-31T21:58:46.959Z,101543.44
2022-07-31T22:01:15.760Z,101546.78
2022-07-31T22:03:44.235Z,101553.28
2022-07-31T22:06:29.959Z,101562.31
2022-07-31T22:08:58.477Z,101559.47
2022-07-31T22:11:26.804Z,101558.34
2022-07-31T22:13:56.536Z,101542.44
2022-07-31T22:16:24.913Z,101557.34
2022-07-31T22:18:54.071Z,101554.72
2022-07-31T22:21:23.675Z,101532.88
2022-07-31T22:23:52.579Z,101544.13
2022-07-31T22:26:21.683Z,101548.00
2022-07-31T22:28:50.280Z,101555.38
2022-07-31T22:31:20.527Z,101568.94
2022-07-31T22:33:49.113Z,101566.63
2022-07-31T22:36:18.598Z,101531.38
2022-07-31T22:38:48.353Z,101561.00
2022-07-31T22:41:16.868Z,101566.97
2022-07-31T22:44:12.089Z,101554.84
2022-07-31T22:46:36.563Z,101551.13
2022-07-31T22:49:08.593Z,101564.69
2022-07-31T22:51:38.685Z,101573.09
2022-07-31T22:54:08.093Z,101567.47
2022-07-31T22:56:36.523Z,101524.19
2022-07-31T22:59:05.136Z,101580.38
2022-07-31T23:01:34.917Z,101549.16
2022-07-31T23:04:03.352Z,101581.53
2022-07-31T23:06:32.803Z,101592.03
2022-07-31T23:09:02.582Z,101571.16
2022-07-31T23:11:31.212Z,101565.75
2022-07-31T23:13:59.589Z,101589.22
2022-07-31T23:16:28.293Z,101584.16
2022-07-31T23:18:58.058Z,101586.63
2022-07-31T23:21:26.365Z,101581.91
2022-07-31T23:23:54.770Z,101588.63
2022-07-31T23:26:25.738Z,101585.06
2022-07-31T23:46:20.928Z,101601.53
2022-07-31T23:48:55.090Z,101602.91
2022-07-31T23:51:24.367Z,101601.50
2022-07-31T23:53:52.821Z,101622.63
2022-07-31T23:56:21.198Z,101608.69
2022-07-31T23:58:49.538Z,101613.56
